Terminal Aerodrome Forecast
Issued by NWS Springfield, MO

Home | Current Version | Previous Version | Text Only | Print | Product List | Glossary On
Versions: 1 2 3 4 5 6 7 8 9 10 11 12 13 14 15 16 17 18 19
691
FTUS43 KSGF 181720
TAFSGF
TAF
KSGF 181720Z 1818/1918 25007KT P6SM SCT025
     FM182100 19005KT P6SM SCT025 SCT150
     FM191400 15006KT P6SM BKN015
     FM191500 15006KT P6SM BKN008 BKN025=

USA.gov is the U.S. government's official web portal to all federal, state and local government web resources and services.